Aviation Digital Data Service (ADDS)

Output produced by METARs form (1652 UTC 21 January 2018)
found at http://aviationweather.gov/adds/metars/
 
KPBG 211411Z 2114/2212 VRB03KT P6SM BKN035 OVC050 
     FM220400 00000KT P6SM OVC030 
     FM220600 00000KT P6SM VCSH OVC020